sensor_id;sensor_type;location;lat;lon;timestamp;P1;durP1;ratioP1;P2;durP2;ratioP2
16862;SDS011;52193;48.216;-1.698;2024-01-15T00:02:11;51.33;;;46.55;;
16862;SDS011;52193;48.216;-1.698;2024-01-15T00:04:40;50.47;;;45.67;;
16862;SDS011;52193;48.216;-1.698;2024-01-15T00:07:07;48.17;;;43.67;;
16862;SDS011;52193;48.216;-1.698;2024-01-15T00:09:34;49.13;;;44.55;;
16862;SDS011;52193;48.216;-1.698;2024-01-15T00:12:01;49.35;;;44.75;;
16862;SDS011;52193;48.216;-1.698;2024-01-15T00:14:28;48.65;;;44.03;;
16862;SDS011;52193;48.216;-1.698;2024-01-15T00:16:55;48.20;;;43.72;;
16862;SDS011;52193;48.216;-1.698;2024-01-15T00:19:22;49.00;;;44.13;;
16862;SDS011;52193;48.216;-1.698;2024-01-15T00:21:51;47.25;;;42.78;;
16862;SDS011;52193;48.216;-1.698;2024-01-15T00:24:18;47.85;;;43.45;;
16862;SDS011;52193;48.216;-1.698;2024-01-15T00:26:45;47.80;;;43.40;;
16862;SDS011;52193;48.216;-1.698;2024-01-15T00:29:12;47.40;;;43.00;;
16862;SDS011;52193;48.216;-1.698;2024-01-15T00:31:39;46.28;;;41.97;;
16862;SDS011;52193;48.216;-1.698;2024-01-15T00:34:05;46.97;;;42.60;;
16862;SDS011;52193;48.216;-1.698;2024-01-15T00:36:32;44.03;;;40.22;;
16862;SDS011;52193;48.216;-1.698;2024-01-15T00:39:01;46.03;;;41.78;;
16862;SDS011;52193;48.216;-1.698;2024-01-15T00:41:30;45.40;;;41.22;;
16862;SDS011;52193;48.216;-1.698;2024-01-15T00:43:57;44.15;;;40.08;;
16862;SDS011;52193;48.216;-1.698;2024-01-15T00:46:23;44.72;;;40.70;;
16862;SDS011;52193;48.216;-1.698;2024-01-15T00:48:50;44.53;;;40.53;;
16862;SDS011;52193;48.216;-1.698;2024-01-15T00:51:17;44.83;;;40.75;;
16862;SDS011;52193;48.216;-1.698;2024-01-15T00:53:44;44.17;;;40.17;;
16862;SDS011;52193;48.216;-1.698;2024-01-15T00:56:12;44.85;;;40.95;;
16862;SDS011;52193;48.216;-1.698;2024-01-15T00:58:39;45.50;;;41.38;;
16862;SDS011;52193;48.216;-1.698;2024-01-15T01:01:06;42.03;;;38.47;;
16862;SDS011;52193;48.216;-1.698;2024-01-15T01:03:33;43.70;;;39.95;;
16862;SDS011;52193;48.216;-1.698;2024-01-15T01:06:00;44.45;;;40.45;;
16862;SDS011;52193;48.216;-1.698;2024-01-15T01:08:27;45.40;;;41.38;;
16862;SDS011;52193;48.216;-1.698;2024-01-15T01:10:55;45.30;;;41.15;;
16862;SDS011;52193;48.216;-1.698;2024-01-15T01:13:23;45.58;;;41.25;;
16862;SDS011;52193;48.216;-1.698;2024-01-15T01:15:50;45.95;;;41.85;;
16862;SDS011;52193;48.216;-1.698;2024-01-15T01:18:17;46.60;;;42.38;;
16862;SDS011;52193;48.216;-1.698;2024-01-15T01:20:44;45.22;;;41.30;;
16862;SDS011;52193;48.216;-1.698;2024-01-15T01:23:11;45.08;;;40.97;;
16862;SDS011;52193;48.216;-1.698;2024-01-15T01:25:38;44.10;;;40.17;;
16862;SDS011;52193;48.216;-1.698;2024-01-15T01:28:05;47.20;;;42.90;;
16862;SDS011;52193;48.216;-1.698;2024-01-15T01:30:33;47.80;;;43.50;;
16862;SDS011;52193;48.216;-1.698;2024-01-15T01:33:00;47.72;;;43.42;;
16862;SDS011;52193;48.216;-1.698;2024-01-15T01:35:27;46.85;;;42.53;;
16862;SDS011;52193;48.216;-1.698;2024-01-15T01:37:54;47.78;;;43.55;;
16862;SDS011;52193;48.216;-1.698;2024-01-15T01:40:21;48.08;;;43.67;;
16862;SDS011;52193;48.216;-1.698;2024-01-15T01:42:48;49.03;;;44.53;;
16862;SDS011;52193;48.216;-1.698;2024-01-15T01:45:14;49.67;;;44.80;;
16862;SDS011;52193;48.216;-1.698;2024-01-15T01:47:42;47.75;;;43.38;;
16862;SDS011;52193;48.216;-1.698;2024-01-15T01:50:09;48.17;;;43.97;;
16862;SDS011;52193;48.216;-1.698;2024-01-15T01:52:37;48.42;;;43.92;;
16862;SDS011;52193;48.216;-1.698;2024-01-15T01:55:04;47.22;;;42.92;;
16862;SDS011;52193;48.216;-1.698;2024-01-15T01:57:33;48.42;;;44.13;;
16862;SDS011;52193;48.216;-1.698;2024-01-15T02:00:01;46.85;;;42.70;;
16862;SDS011;52193;48.216;-1.698;2024-01-15T02:02:29;47.05;;;42.75;;
16862;SDS011;52193;48.216;-1.698;2024-01-15T02:04:58;47.13;;;42.88;;
16862;SDS011;52193;48.216;-1.698;2024-01-15T02:07:25;48.10;;;43.75;;
16862;SDS011;52193;48.216;-1.698;2024-01-15T02:09:52;48.95;;;44.65;;
16862;SDS011;52193;48.216;-1.698;2024-01-15T02:12:19;48.40;;;44.28;;
16862;SDS011;52193;48.216;-1.698;2024-01-15T02:14:46;48.92;;;44.72;;
16862;SDS011;52193;48.216;-1.698;2024-01-15T02:17:13;47.28;;;43.20;;
16862;SDS011;52193;48.216;-1.698;2024-01-15T02:19:40;49.53;;;45.20;;
16862;SDS011;52193;48.216;-1.698;2024-01-15T02:22:08;48.70;;;44.50;;
16862;SDS011;52193;48.216;-1.698;2024-01-15T02:24:36;50.28;;;45.72;;
16862;SDS011;52193;48.216;-1.698;2024-01-15T02:27:04;48.97;;;44.90;;
16862;SDS011;52193;48.216;-1.698;2024-01-15T02:29:30;48.50;;;44.45;;
16862;SDS011;52193;48.216;-1.698;2024-01-15T02:31:58;50.20;;;46.00;;
16862;SDS011;52193;48.216;-1.698;2024-01-15T02:34:24;47.53;;;43.42;;
16862;SDS011;52193;48.216;-1.698;2024-01-15T02:36:51;48.85;;;44.85;;
16862;SDS011;52193;48.216;-1.698;2024-01-15T02:39:18;48.15;;;43.97;;
16862;SDS011;52193;48.216;-1.698;2024-01-15T02:41:46;49.25;;;45.13;;
16862;SDS011;52193;48.216;-1.698;2024-01-15T02:44:13;49.08;;;45.03;;
16862;SDS011;52193;48.216;-1.698;2024-01-15T02:46:40;48.85;;;44.70;;
16862;SDS011;52193;48.216;-1.698;2024-01-15T02:49:07;49.35;;;45.15;;
16862;SDS011;52193;48.216;-1.698;2024-01-15T02:51:34;49.70;;;45.38;;
16862;SDS011;52193;48.216;-1.698;2024-01-15T02:54:00;50.58;;;46.33;;
16862;SDS011;52193;48.216;-1.698;2024-01-15T02:56:27;49.55;;;45.55;;
16862;SDS011;52193;48.216;-1.698;2024-01-15T02:58:56;50.25;;;45.97;;
16862;SDS011;52193;48.216;-1.698;2024-01-15T03:01:22;50.25;;;45.95;;
16862;SDS011;52193;48.216;-1.698;2024-01-15T03:03:49;49.92;;;45.75;;
16862;SDS011;52193;48.216;-1.698;2024-01-15T03:06:16;48.78;;;44.78;;
16862;SDS011;52193;48.216;-1.698;2024-01-15T03:08:43;49.00;;;45.00;;
16862;SDS011;52193;48.216;-1.698;2024-01-15T03:11:10;50.30;;;45.95;;
16862;SDS011;52193;48.216;-1.698;2024-01-15T03:13:37;48.38;;;44.38;;
16862;SDS011;52193;48.216;-1.698;2024-01-15T03:16:05;48.63;;;44.47;;
16862;SDS011;52193;48.216;-1.698;2024-01-15T03:18:32;48.33;;;44.25;;
16862;SDS011;52193;48.216;-1.698;2024-01-15T03:20:59;48.63;;;44.67;;
16862;SDS011;52193;48.216;-1.698;2024-01-15T03:23:27;49.28;;;45.15;;
16862;SDS011;52193;48.216;-1.698;2024-01-15T03:25:54;48.20;;;44.17;;
16862;SDS011;52193;48.216;-1.698;2024-01-15T03:28:21;50.53;;;46.33;;
16862;SDS011;52193;48.216;-1.698;2024-01-15T03:30:48;48.35;;;44.42;;
16862;SDS011;52193;48.216;-1.698;2024-01-15T03:33:16;48.72;;;44.78;;
16862;SDS011;52193;48.216;-1.698;2024-01-15T03:35:43;47.85;;;43.95;;
16862;SDS011;52193;48.216;-1.698;2024-01-15T03:38:10;48.58;;;44.30;;
16862;SDS011;52193;48.216;-1.698;2024-01-15T03:40:36;47.42;;;43.58;;
16862;SDS011;52193;48.216;-1.698;2024-01-15T03:43:03;46.25;;;42.60;;
16862;SDS011;52193;48.216;-1.698;2024-01-15T03:45:30;47.85;;;43.88;;
16862;SDS011;52193;48.216;-1.698;2024-01-15T03:47:57;46.60;;;42.88;;
16862;SDS011;52193;48.216;-1.698;2024-01-15T03:50:25;48.00;;;44.20;;
16862;SDS011;52193;48.216;-1.698;2024-01-15T03:52:52;46.60;;;42.75;;
16862;SDS011;52193;48.216;-1.698;2024-01-15T03:55:19;46.15;;;42.45;;
16862;SDS011;52193;48.216;-1.698;2024-01-15T03:57:46;46.72;;;42.85;;
16862;SDS011;52193;48.216;-1.698;2024-01-15T04:00:14;46.90;;;43.10;;
16862;SDS011;52193;48.216;-1.698;2024-01-15T04:02:42;45.42;;;41.92;;
16862;SDS011;52193;48.216;-1.698;2024-01-15T04:05:09;46.80;;;42.97;;
16862;SDS011;52193;48.216;-1.698;2024-01-15T04:07:38;45.15;;;41.38;;
16862;SDS011;52193;48.216;-1.698;2024-01-15T04:10:05;47.05;;;43.05;;
16862;SDS011;52193;48.216;-1.698;2024-01-15T04:12:32;46.55;;;42.85;;
16862;SDS011;52193;48.216;-1.698;2024-01-15T04:14:59;46.35;;;42.63;;
16862;SDS011;52193;48.216;-1.698;2024-01-15T04:17:26;48.08;;;44.28;;
16862;SDS011;52193;48.216;-1.698;2024-01-15T04:19:53;48.17;;;44.33;;
16862;SDS011;52193;48.216;-1.698;2024-01-15T04:22:20;47.88;;;43.95;;
16862;SDS011;52193;48.216;-1.698;2024-01-15T04:24:48;49.10;;;45.10;;
16862;SDS011;52193;48.216;-1.698;2024-01-15T04:27:15;47.65;;;43.75;;
16862;SDS011;52193;48.216;-1.698;2024-01-15T04:29:42;48.60;;;44.65;;
16862;SDS011;52193;48.216;-1.698;2024-01-15T04:32:10;48.55;;;44.70;;
16862;SDS011;52193;48.216;-1.698;2024-01-15T04:34:36;54.00;;;44.80;;
16862;SDS011;52193;48.216;-1.698;2024-01-15T04:37:04;48.38;;;44.35;;
16862;SDS011;52193;48.216;-1.698;2024-01-15T04:39:30;47.95;;;44.15;;
16862;SDS011;52193;48.216;-1.698;2024-01-15T04:41:59;48.42;;;44.42;;
16862;SDS011;52193;48.216;-1.698;2024-01-15T04:44:25;48.30;;;44.22;;
16862;SDS011;52193;48.216;-1.698;2024-01-15T04:46:52;49.35;;;45.45;;
16862;SDS011;52193;48.216;-1.698;2024-01-15T04:49:19;47.88;;;43.97;;
16862;SDS011;52193;48.216;-1.698;2024-01-15T04:51:46;48.92;;;45.17;;
16862;SDS011;52193;48.216;-1.698;2024-01-15T04:54:13;50.10;;;45.80;;
16862;SDS011;52193;48.216;-1.698;2024-01-15T04:56:42;48.40;;;44.25;;
16862;SDS011;52193;48.216;-1.698;2024-01-15T04:59:11;48.35;;;44.60;;
16862;SDS011;52193;48.216;-1.698;2024-01-15T05:01:38;48.25;;;44.47;;
16862;SDS011;52193;48.216;-1.698;2024-01-15T05:04:04;49.10;;;45.35;;
16862;SDS011;52193;48.216;-1.698;2024-01-15T05:06:31;47.88;;;44.17;;
16862;SDS011;52193;48.216;-1.698;2024-01-15T05:08:58;48.90;;;44.58;;
16862;SDS011;52193;48.216;-1.698;2024-01-15T05:11:25;47.15;;;43.45;;
16862;SDS011;52193;48.216;-1.698;2024-01-15T05:13:52;62.33;;;44.03;;
16862;SDS011;52193;48.216;-1.698;2024-01-15T05:16:20;47.72;;;43.92;;
16862;SDS011;52193;48.216;-1.698;2024-01-15T05:18:47;48.50;;;44.70;;
16862;SDS011;52193;48.216;-1.698;2024-01-15T05:21:14;47.35;;;43.78;;
16862;SDS011;52193;48.216;-1.698;2024-01-15T05:23:41;47.67;;;43.60;;
16862;SDS011;52193;48.216;-1.698;2024-01-15T05:26:08;46.67;;;43.28;;
16862;SDS011;52193;48.216;-1.698;2024-01-15T05:28:35;48.40;;;44.60;;
16862;SDS011;52193;48.216;-1.698;2024-01-15T05:31:02;47.83;;;44.17;;
16862;SDS011;52193;48.216;-1.698;2024-01-15T05:33:31;49.10;;;45.30;;
16862;SDS011;52193;48.216;-1.698;2024-01-15T05:35:58;48.55;;;44.83;;
16862;SDS011;52193;48.216;-1.698;2024-01-15T05:38:25;50.90;;;46.13;;
16862;SDS011;52193;48.216;-1.698;2024-01-15T05:40:52;49.67;;;45.75;;
16862;SDS011;52193;48.216;-1.698;2024-01-15T05:43:18;49.20;;;45.30;;
16862;SDS011;52193;48.216;-1.698;2024-01-15T05:45:45;49.78;;;45.83;;
16862;SDS011;52193;48.216;-1.698;2024-01-15T05:48:12;49.65;;;45.80;;
16862;SDS011;52193;48.216;-1.698;2024-01-15T05:50:41;50.20;;;46.25;;
16862;SDS011;52193;48.216;-1.698;2024-01-15T05:53:08;48.90;;;44.92;;
16862;SDS011;52193;48.216;-1.698;2024-01-15T05:55:35;49.42;;;45.55;;
16862;SDS011;52193;48.216;-1.698;2024-01-15T05:58:02;95.05;;;48.88;;
16862;SDS011;52193;48.216;-1.698;2024-01-15T06:00:29;51.13;;;47.13;;
16862;SDS011;52193;48.216;-1.698;2024-01-15T06:02:58;49.88;;;46.10;;
16862;SDS011;52193;48.216;-1.698;2024-01-15T06:05:24;51.92;;;47.72;;
16862;SDS011;52193;48.216;-1.698;2024-01-15T06:07:53;49.60;;;45.78;;
16862;SDS011;52193;48.216;-1.698;2024-01-15T06:10:19;50.65;;;46.63;;
16862;SDS011;52193;48.216;-1.698;2024-01-15T06:12:46;49.75;;;45.83;;
16862;SDS011;52193;48.216;-1.698;2024-01-15T06:15:13;51.63;;;47.42;;
16862;SDS011;52193;48.216;-1.698;2024-01-15T06:17:40;51.13;;;46.75;;
16862;SDS011;52193;48.216;-1.698;2024-01-15T06:20:07;52.17;;;47.65;;
16862;SDS011;52193;48.216;-1.698;2024-01-15T06:22:35;50.05;;;46.05;;
16862;SDS011;52193;48.216;-1.698;2024-01-15T06:25:06;49.80;;;45.90;;
16862;SDS011;52193;48.216;-1.698;2024-01-15T06:27:33;46.90;;;43.53;;
16862;SDS011;52193;48.216;-1.698;2024-01-15T06:30:00;46.28;;;42.97;;
16862;SDS011;52193;48.216;-1.698;2024-01-15T06:32:27;44.60;;;41.50;;
16862;SDS011;52193;48.216;-1.698;2024-01-15T06:34:54;43.30;;;40.30;;
16862;SDS011;52193;48.216;-1.698;2024-01-15T06:37:20;42.83;;;39.83;;
16862;SDS011;52193;48.216;-1.698;2024-01-15T06:39:47;43.60;;;40.53;;
16862;SDS011;52193;48.216;-1.698;2024-01-15T06:42:16;44.28;;;41.10;;
16862;SDS011;52193;48.216;-1.698;2024-01-15T06:44:43;42.25;;;39.35;;
16862;SDS011;52193;48.216;-1.698;2024-01-15T06:47:10;44.22;;;40.75;;
16862;SDS011;52193;48.216;-1.698;2024-01-15T06:49:37;43.22;;;40.22;;
16862;SDS011;52193;48.216;-1.698;2024-01-15T06:52:04;42.95;;;39.95;;
16862;SDS011;52193;48.216;-1.698;2024-01-15T06:54:31;43.33;;;40.25;;
16862;SDS011;52193;48.216;-1.698;2024-01-15T06:56:58;42.70;;;39.80;;
16862;SDS011;52193;48.216;-1.698;2024-01-15T06:59:26;42.45;;;39.55;;
16862;SDS011;52193;48.216;-1.698;2024-01-15T07:01:53;43.15;;;40.15;;
16862;SDS011;52193;48.216;-1.698;2024-01-15T07:04:20;42.70;;;39.50;;
16862;SDS011;52193;48.216;-1.698;2024-01-15T07:06:47;42.20;;;39.35;;
16862;SDS011;52193;48.216;-1.698;2024-01-15T07:09:14;42.08;;;39.00;;
16862;SDS011;52193;48.216;-1.698;2024-01-15T07:11:44;42.22;;;39.15;;
16862;SDS011;52193;48.216;-1.698;2024-01-15T07:14:11;42.20;;;39.17;;
16862;SDS011;52193;48.216;-1.698;2024-01-15T07:16:40;43.45;;;40.45;;
16862;SDS011;52193;48.216;-1.698;2024-01-15T07:19:07;43.45;;;40.35;;
16862;SDS011;52193;48.216;-1.698;2024-01-15T07:21:34;42.58;;;39.42;;
16862;SDS011;52193;48.216;-1.698;2024-01-15T07:24:01;42.47;;;39.65;;
16862;SDS011;52193;48.216;-1.698;2024-01-15T07:26:27;41.55;;;38.80;;
16862;SDS011;52193;48.216;-1.698;2024-01-15T07:28:56;64.18;;;59.08;;
16862;SDS011;52193;48.216;-1.698;2024-01-15T07:31:23;74.57;;;68.57;;
16862;SDS011;52193;48.216;-1.698;2024-01-15T07:33:51;46.97;;;43.58;;
16862;SDS011;52193;48.216;-1.698;2024-01-15T07:36:18;44.35;;;41.15;;
16862;SDS011;52193;48.216;-1.698;2024-01-15T07:38:45;41.92;;;39.03;;
16862;SDS011;52193;48.216;-1.698;2024-01-15T07:41:12;44.08;;;40.88;;
16862;SDS011;52193;48.216;-1.698;2024-01-15T07:43:39;41.22;;;38.50;;
16862;SDS011;52193;48.216;-1.698;2024-01-15T07:46:07;42.58;;;39.67;;
16862;SDS011;52193;48.216;-1.698;2024-01-15T07:48:33;52.75;;;48.55;;
16862;SDS011;52193;48.216;-1.698;2024-01-15T07:51:02;62.10;;;57.28;;
16862;SDS011;52193;48.216;-1.698;2024-01-15T07:53:30;73.15;;;67.18;;
16862;SDS011;52193;48.216;-1.698;2024-01-15T07:55:56;57.95;;;53.15;;
16862;SDS011;52193;48.216;-1.698;2024-01-15T07:58:23;61.70;;;56.80;;
16862;SDS011;52193;48.216;-1.698;2024-01-15T08:00:50;58.58;;;54.08;;
16862;SDS011;52193;48.216;-1.698;2024-01-15T08:03:17;52.22;;;48.35;;
16862;SDS011;52193;48.216;-1.698;2024-01-15T08:05:44;49.70;;;46.10;;
16862;SDS011;52193;48.216;-1.698;2024-01-15T08:08:13;50.22;;;46.63;;
16862;SDS011;52193;48.216;-1.698;2024-01-15T08:10:40;49.55;;;45.95;;
16862;SDS011;52193;48.216;-1.698;2024-01-15T08:13:07;46.72;;;43.35;;
16862;SDS011;52193;48.216;-1.698;2024-01-15T08:15:34;48.65;;;45.05;;
16862;SDS011;52193;48.216;-1.698;2024-01-15T08:18:01;49.28;;;45.58;;
16862;SDS011;52193;48.216;-1.698;2024-01-15T08:20:28;44.90;;;41.67;;
16862;SDS011;52193;48.216;-1.698;2024-01-15T08:22:55;44.72;;;41.42;;
16862;SDS011;52193;48.216;-1.698;2024-01-15T08:25:24;44.65;;;41.20;;
16862;SDS011;52193;48.216;-1.698;2024-01-15T08:27:51;45.95;;;42.55;;
16862;SDS011;52193;48.216;-1.698;2024-01-15T08:30:18;45.63;;;42.45;;
16862;SDS011;52193;48.216;-1.698;2024-01-15T08:32:45;45.35;;;41.97;;
16862;SDS011;52193;48.216;-1.698;2024-01-15T08:35:12;46.55;;;43.10;;
16862;SDS011;52193;48.216;-1.698;2024-01-15T08:37:39;45.33;;;41.90;;
16862;SDS011;52193;48.216;-1.698;2024-01-15T08:40:06;47.20;;;43.45;;
16862;SDS011;52193;48.216;-1.698;2024-01-15T08:42:35;44.83;;;41.45;;
16862;SDS011;52193;48.216;-1.698;2024-01-15T08:45:02;43.97;;;40.65;;
16862;SDS011;52193;48.216;-1.698;2024-01-15T08:47:30;42.42;;;39.33;;
16862;SDS011;52193;48.216;-1.698;2024-01-15T08:49:57;43.30;;;39.97;;
16862;SDS011;52193;48.216;-1.698;2024-01-15T08:52:24;43.38;;;39.97;;
16862;SDS011;52193;48.216;-1.698;2024-01-15T08:54:51;45.03;;;41.28;;
16862;SDS011;52193;48.216;-1.698;2024-01-15T08:57:18;43.15;;;39.90;;
16862;SDS011;52193;48.216;-1.698;2024-01-15T08:59:46;41.65;;;38.45;;
16862;SDS011;52193;48.216;-1.698;2024-01-15T09:02:13;41.65;;;38.63;;
16862;SDS011;52193;48.216;-1.698;2024-01-15T09:04:40;41.13;;;38.00;;
16862;SDS011;52193;48.216;-1.698;2024-01-15T09:07:07;43.83;;;40.38;;
16862;SDS011;52193;48.216;-1.698;2024-01-15T09:09:34;43.50;;;40.42;;
16862;SDS011;52193;48.216;-1.698;2024-01-15T09:12:01;44.17;;;40.90;;
16862;SDS011;52193;48.216;-1.698;2024-01-15T09:14:28;44.78;;;41.65;;
16862;SDS011;52193;48.216;-1.698;2024-01-15T09:16:56;45.88;;;42.58;;
16862;SDS011;52193;48.216;-1.698;2024-01-15T09:19:23;48.03;;;44.53;;
16862;SDS011;52193;48.216;-1.698;2024-01-15T09:21:50;47.92;;;44.38;;
16862;SDS011;52193;48.216;-1.698;2024-01-15T09:24:17;48.75;;;44.92;;
16862;SDS011;52193;48.216;-1.698;2024-01-15T09:26:44;49.53;;;45.72;;
16862;SDS011;52193;48.216;-1.698;2024-01-15T09:29:11;51.17;;;47.22;;
16862;SDS011;52193;48.216;-1.698;2024-01-15T09:31:40;49.95;;;46.28;;
16862;SDS011;52193;48.216;-1.698;2024-01-15T09:34:09;49.65;;;45.95;;
16862;SDS011;52193;48.216;-1.698;2024-01-15T09:36:38;49.28;;;45.45;;
16862;SDS011;52193;48.216;-1.698;2024-01-15T09:39:06;52.45;;;48.28;;
16862;SDS011;52193;48.216;-1.698;2024-01-15T09:41:35;51.30;;;47.22;;
16862;SDS011;52193;48.216;-1.698;2024-01-15T09:44:03;48.42;;;44.80;;
16862;SDS011;52193;48.216;-1.698;2024-01-15T09:46:32;48.80;;;45.13;;
16862;SDS011;52193;48.216;-1.698;2024-01-15T09:48:59;47.40;;;43.97;;
16862;SDS011;52193;48.216;-1.698;2024-01-15T09:51:29;46.88;;;43.25;;
16862;SDS011;52193;48.216;-1.698;2024-01-15T09:53:58;45.28;;;41.88;;
16862;SDS011;52193;48.216;-1.698;2024-01-15T09:56:24;43.88;;;40.58;;
16862;SDS011;52193;48.216;-1.698;2024-01-15T09:58:52;43.50;;;40.30;;
16862;SDS011;52193;48.216;-1.698;2024-01-15T10:01:20;42.55;;;39.55;;
16862;SDS011;52193;48.216;-1.698;2024-01-15T10:03:47;42.92;;;39.92;;
16862;SDS011;52193;48.216;-1.698;2024-01-15T10:06:14;43.25;;;40.15;;
16862;SDS011;52193;48.216;-1.698;2024-01-15T10:08:44;43.00;;;39.80;;
16862;SDS011;52193;48.216;-1.698;2024-01-15T10:11:14;41.00;;;38.15;;
16862;SDS011;52193;48.216;-1.698;2024-01-15T10:13:42;41.13;;;38.22;;
16862;SDS011;52193;48.216;-1.698;2024-01-15T10:16:10;38.78;;;35.97;;
16862;SDS011;52193;48.216;-1.698;2024-01-15T10:18:37;39.03;;;36.15;;
16862;SDS011;52193;48.216;-1.698;2024-01-15T10:21:06;38.38;;;35.47;;
16862;SDS011;52193;48.216;-1.698;2024-01-15T10:23:33;37.00;;;34.22;;
16862;SDS011;52193;48.216;-1.698;2024-01-15T10:26:02;34.58;;;32.08;;
16862;SDS011;52193;48.216;-1.698;2024-01-15T10:28:30;35.83;;;33.35;;
16862;SDS011;52193;48.216;-1.698;2024-01-15T10:30:57;34.83;;;32.45;;
16862;SDS011;52193;48.216;-1.698;2024-01-15T10:33:25;33.70;;;31.40;;
16862;SDS011;52193;48.216;-1.698;2024-01-15T10:35:53;33.92;;;31.52;;
16862;SDS011;52193;48.216;-1.698;2024-01-15T10:38:20;32.78;;;30.45;;
16862;SDS011;52193;48.216;-1.698;2024-01-15T10:40:50;32.78;;;30.45;;
16862;SDS011;52193;48.216;-1.698;2024-01-15T10:43:19;34.17;;;31.67;;
16862;SDS011;52193;48.216;-1.698;2024-01-15T10:45:47;35.03;;;32.38;;
16862;SDS011;52193;48.216;-1.698;2024-01-15T10:48:16;34.17;;;31.77;;
16862;SDS011;52193;48.216;-1.698;2024-01-15T10:50:44;34.78;;;32.22;;
16862;SDS011;52193;48.216;-1.698;2024-01-15T10:53:13;33.15;;;30.63;;
16862;SDS011;52193;48.216;-1.698;2024-01-15T10:55:41;35.78;;;33.13;;
16862;SDS011;52193;48.216;-1.698;2024-01-15T10:58:09;33.30;;;30.90;;
16862;SDS011;52193;48.216;-1.698;2024-01-15T11:00:37;31.90;;;29.50;;
16862;SDS011;52193;48.216;-1.698;2024-01-15T11:03:05;29.80;;;27.80;;
16862;SDS011;52193;48.216;-1.698;2024-01-15T11:05:33;32.22;;;29.50;;
16862;SDS011;52193;48.216;-1.698;2024-01-15T11:08:01;32.35;;;29.73;;
16862;SDS011;52193;48.216;-1.698;2024-01-15T11:10:41;28.73;;;26.80;;
16862;SDS011;52193;48.216;-1.698;2024-01-15T11:13:13;28.65;;;26.73;;
16862;SDS011;52193;48.216;-1.698;2024-01-15T11:16:09;31.08;;;28.58;;
16862;SDS011;52193;48.216;-1.698;2024-01-15T11:18:38;33.00;;;30.20;;
16862;SDS011;52193;48.216;-1.698;2024-01-15T11:21:25;26.50;;;24.45;;
16862;SDS011;52193;48.216;-1.698;2024-01-15T11:23:53;27.13;;;25.02;;
16862;SDS011;52193;48.216;-1.698;2024-01-15T11:26:35;23.95;;;22.15;;
16862;SDS011;52193;48.216;-1.698;2024-01-15T11:29:04;21.88;;;20.38;;
16862;SDS011;52193;48.216;-1.698;2024-01-15T11:34:55;22.48;;;20.70;;
16862;SDS011;52193;48.216;-1.698;2024-01-15T11:37:24;19.85;;;18.55;;
16862;SDS011;52193;48.216;-1.698;2024-01-15T11:39:53;18.70;;;17.40;;
16862;SDS011;52193;48.216;-1.698;2024-01-15T11:42:21;18.05;;;16.85;;
16862;SDS011;52193;48.216;-1.698;2024-01-15T11:44:48;18.90;;;17.60;;
16862;SDS011;52193;48.216;-1.698;2024-01-15T11:47:16;18.33;;;17.05;;
16862;SDS011;52193;48.216;-1.698;2024-01-15T11:50:19;18.02;;;16.73;;
16862;SDS011;52193;48.216;-1.698;2024-01-15T11:52:50;17.67;;;16.15;;
16862;SDS011;52193;48.216;-1.698;2024-01-15T11:55:26;16.40;;;15.05;;
16862;SDS011;52193;48.216;-1.698;2024-01-15T11:57:54;16.05;;;14.77;;
16862;SDS011;52193;48.216;-1.698;2024-01-15T12:00:23;15.43;;;14.32;;
16862;SDS011;52193;48.216;-1.698;2024-01-15T12:02:50;14.98;;;14.02;;
16862;SDS011;52193;48.216;-1.698;2024-01-15T12:05:18;14.88;;;13.73;;
16862;SDS011;52193;48.216;-1.698;2024-01-15T12:07:47;14.80;;;13.70;;
16862;SDS011;52193;48.216;-1.698;2024-01-15T12:10:15;15.18;;;14.00;;
16862;SDS011;52193;48.216;-1.698;2024-01-15T12:12:47;13.90;;;12.90;;
16862;SDS011;52193;48.216;-1.698;2024-01-15T12:15:22;15.07;;;13.88;;
16862;SDS011;52193;48.216;-1.698;2024-01-15T12:17:50;12.68;;;11.77;;
16862;SDS011;52193;48.216;-1.698;2024-01-15T12:20:17;12.05;;;11.25;;
16862;SDS011;52193;48.216;-1.698;2024-01-15T12:22:45;11.63;;;10.82;;
16862;SDS011;52193;48.216;-1.698;2024-01-15T12:25:12;13.23;;;12.32;;
16862;SDS011;52193;48.216;-1.698;2024-01-15T12:27:39;13.35;;;12.35;;
16862;SDS011;52193;48.216;-1.698;2024-01-15T12:30:06;14.38;;;13.15;;
16862;SDS011;52193;48.216;-1.698;2024-01-15T12:32:36;12.55;;;11.65;;
16862;SDS011;52193;48.216;-1.698;2024-01-15T12:35:03;12.80;;;11.90;;
16862;SDS011;52193;48.216;-1.698;2024-01-15T12:37:34;11.20;;;10.48;;
16862;SDS011;52193;48.216;-1.698;2024-01-15T12:40:02;10.35;;;9.75;;
16862;SDS011;52193;48.216;-1.698;2024-01-15T12:42:29;10.68;;;9.95;;
16862;SDS011;52193;48.216;-1.698;2024-01-15T12:44:56;11.15;;;10.35;;
16862;SDS011;52193;48.216;-1.698;2024-01-15T12:47:23;11.45;;;10.73;;
16862;SDS011;52193;48.216;-1.698;2024-01-15T12:49:51;11.25;;;10.52;;
16862;SDS011;52193;48.216;-1.698;2024-01-15T12:52:19;10.98;;;10.27;;
16862;SDS011;52193;48.216;-1.698;2024-01-15T12:54:49;9.52;;;8.82;;
16862;SDS011;52193;48.216;-1.698;2024-01-15T12:57:17;10.23;;;9.32;;
16862;SDS011;52193;48.216;-1.698;2024-01-15T12:59:44;10.38;;;9.77;;
16862;SDS011;52193;48.216;-1.698;2024-01-15T13:02:13;9.85;;;9.25;;
16862;SDS011;52193;48.216;-1.698;2024-01-15T13:04:40;9.45;;;8.95;;
16862;SDS011;52193;48.216;-1.698;2024-01-15T13:07:07;9.65;;;9.15;;
16862;SDS011;52193;48.216;-1.698;2024-01-15T13:09:34;9.25;;;8.75;;
16862;SDS011;52193;48.216;-1.698;2024-01-15T13:12:03;9.00;;;8.40;;
16862;SDS011;52193;48.216;-1.698;2024-01-15T13:14:30;8.45;;;7.95;;
16862;SDS011;52193;48.216;-1.698;2024-01-15T13:16:58;9.25;;;8.63;;
16862;SDS011;52193;48.216;-1.698;2024-01-15T13:19:25;9.50;;;8.90;;
16862;SDS011;52193;48.216;-1.698;2024-01-15T13:21:52;10.18;;;9.48;;
16862;SDS011;52193;48.216;-1.698;2024-01-15T13:24:19;10.25;;;9.55;;
16862;SDS011;52193;48.216;-1.698;2024-01-15T13:26:48;9.48;;;8.98;;
16862;SDS011;52193;48.216;-1.698;2024-01-15T13:29:16;8.98;;;8.38;;
16862;SDS011;52193;48.216;-1.698;2024-01-15T13:31:44;9.60;;;9.00;;
16862;SDS011;52193;48.216;-1.698;2024-01-15T13:34:12;9.70;;;9.10;;
16862;SDS011;52193;48.216;-1.698;2024-01-15T13:36:39;10.70;;;9.90;;
16862;SDS011;52193;48.216;-1.698;2024-01-15T13:39:06;10.10;;;9.50;;
16862;SDS011;52193;48.216;-1.698;2024-01-15T13:41:34;10.10;;;9.40;;
16862;SDS011;52193;48.216;-1.698;2024-01-15T13:44:01;9.93;;;9.43;;
16862;SDS011;52193;48.216;-1.698;2024-01-15T13:46:30;9.45;;;8.95;;
16862;SDS011;52193;48.216;-1.698;2024-01-15T13:48:57;10.20;;;9.60;;
16862;SDS011;52193;48.216;-1.698;2024-01-15T13:51:24;11.23;;;10.40;;
16862;SDS011;52193;48.216;-1.698;2024-01-15T13:53:51;10.57;;;9.88;;
16862;SDS011;52193;48.216;-1.698;2024-01-15T13:56:18;10.82;;;10.00;;
16862;SDS011;52193;48.216;-1.698;2024-01-15T13:58:45;10.18;;;9.50;;
16862;SDS011;52193;48.216;-1.698;2024-01-15T14:01:13;10.88;;;10.07;;
16862;SDS011;52193;48.216;-1.698;2024-01-15T14:03:41;10.55;;;9.52;;
16862;SDS011;52193;48.216;-1.698;2024-01-15T14:06:08;10.80;;;10.10;;
16862;SDS011;52193;48.216;-1.698;2024-01-15T14:08:35;10.50;;;9.80;;
16862;SDS011;52193;48.216;-1.698;2024-01-15T14:11:03;10.15;;;9.55;;
16862;SDS011;52193;48.216;-1.698;2024-01-15T14:13:31;10.15;;;9.55;;
16862;SDS011;52193;48.216;-1.698;2024-01-15T14:15:58;9.85;;;9.15;;
16862;SDS011;52193;48.216;-1.698;2024-01-15T14:18:25;14.00;;;12.90;;